EGVO - Odiham
Distance from station: E 5mi, 14km
Updated: 12/14/2017 1:12am
Few Clouds
Few Clouds
 Wind from WSW
Wind: WSW 22 mph , 35 km/h
Temperature: 37°F , 3°C
Wind Chill: 26°F , -3°C
Dew Point: 34°F , 1°C
Humidity: 87%
Barometer: 29.32 inHg , 993 hPa
Clouds: Few Clouds
Visibility: 6 miles , 10 km
Cloud details: Few Clouds 1200 ft
2017/12/14 09:12 EGVO 140912Z 25019KT 9999 FEW012CB 03/01 Q0993 BLU